Shadow Hills, California
Current Conditions -  °F | °C
As of 5:53 AM on Saturday 25 Oct 2014 (Local Time) from KBUR Reporting Station
Clear Clear  
Wind Chill: 60°   Ceiling: Unl
Heat Index: 60°   Visibility: 10mi
Dew Point: 46°   Wind: 3mph
Humidity: 60%   Direction: 350°N
Pressure: 30"   Gusts: NA
Location:  34.2294°N, 118.357°W
Report Text: KBUR 251253Z 35003KT 10SM CLR 16/08 A3000 RMK AO2 SLP146 T01560078
Loading
Personal Weather Stations






























Interactive Weather Map New forecast layout! Learn more

10-Day Weather Forecast

Advertisements
Track Severe Weather on mobile